Terminal Aerodrome Forecast
Issued by NWS

Current Version | Previous Version | Text Only | Print | Product List | Glossary Off
Versions: 1 2 3 4 5 6 7 8 9 10 11 12 13 14 15 16 17 18 19 20 21 22 23 24 25 26 27 28 29 30 31 32 33 34 35 36 37 38 39

934
FTUS41 KRNK 221511 AAB
TAFLWB
TAF AMD
KLWB 221511Z 2215/2312 00000KT P6SM SCT012 OVC070
      TEMPO 2215/2217 4SM -RA BR OVC012
     FM221700 VRB03KT 4SM BR OVC020
      TEMPO 2217/2219 2SM -RA BR OVC007
     FM221900 VRB03KT P6SM OVC030
     FM230000 00000KT 4SM BR BKN010
     FM230500 00000KT 4SM BR OVC003=

USA.gov is the U.S. government's official web portal to all federal, state and local government web resources and services.